Havre City County Airport Havre US
ICAO: KHVR
IATA: HVR
Category: Medium
Scheduled Services: No

Elevation: 2591 ft
TransAlt. 18000 ft.

Airport Communications:
ASOS:135.225
GREAT FALLS RDO:123.65
CTAF/UNICOM:122.8

KHVR Zoom In..

If Map Doesn't Load, Click Here

Runways:

(A) RW 03 length 3699 ft width 60 ft
---- / hdg 32

(B) RW 08 length 5205 ft width 100 ft
---- / hdg 77

(C) RW 21 length 3699 ft width 60 ft
---- / hdg 212

(D) RW 26 length 5205 ft width 100 ft
---- / hdg 257

Location; KHVR
Day. 24 / Time. 05.53 Zulu
* Altimeter: 29.91
* Temperature: 05° c. 41°f.
* Wind from: 000° Speed 00 kn.
Dewpoint: 05° c.
Visibility: 7 Statute Miles.
Clouds: Broken 6500 ft.

KHVR 240553Z AUTO 00000KT 7SM BKN065 05/05 A2991 RMK AO2 SLP138 T00500050 10106 20044 53006


Wind - Calm.

 
 
jpsmedia.com for Web Design worldairports.se 2018   terms of use